METAR Formatted Surface Weather Observation
Issued by NWS

Home | Current Version | Previous Version | Text Only | Print | Product List | Glossary On
Versions: 1 2
000
SPZS31 NSTU 221037
MTRSPP
SPECI NSTU 221037Z VRB05KT 10SM SCT018 BKN040 28/25 A2984=



USA.gov is the U.S. government's official web portal to all federal, state and local government web resources and services.